sensor_id;sensor_type;location;lat;lon;timestamp;P1;durP1;ratioP1;P2;durP2;ratioP2
1308;SDS011;647;48.840;9.314;2022-11-02T00:00:42;70.87;;;10.73;;
1308;SDS011;647;48.840;9.314;2022-11-02T00:03:10;75.30;;;11.10;;
1308;SDS011;647;48.840;9.314;2022-11-02T00:05:36;67.77;;;9.30;;
1308;SDS011;647;48.840;9.314;2022-11-02T00:08:03;66.97;;;10.85;;
1308;SDS011;647;48.840;9.314;2022-11-02T00:10:30;69.27;;;11.50;;
1308;SDS011;647;48.840;9.314;2022-11-02T00:12:57;69.77;;;10.50;;
1308;SDS011;647;48.840;9.314;2022-11-02T00:15:25;65.73;;;10.73;;
1308;SDS011;647;48.840;9.314;2022-11-02T00:17:55;66.80;;;9.30;;
1308;SDS011;647;48.840;9.314;2022-11-02T00:20:24;65.57;;;9.70;;
1308;SDS011;647;48.840;9.314;2022-11-02T00:22:51;66.77;;;9.47;;
1308;SDS011;647;48.840;9.314;2022-11-02T00:25:21;70.43;;;10.30;;
1308;SDS011;647;48.840;9.314;2022-11-02T00:27:50;64.70;;;8.87;;
1308;SDS011;647;48.840;9.314;2022-11-02T00:30:17;64.77;;;9.87;;
1308;SDS011;647;48.840;9.314;2022-11-02T00:32:44;68.50;;;9.60;;
1308;SDS011;647;48.840;9.314;2022-11-02T00:35:13;66.87;;;8.90;;
1308;SDS011;647;48.840;9.314;2022-11-02T00:37:40;65.67;;;9.50;;
1308;SDS011;647;48.840;9.314;2022-11-02T00:40:07;70.37;;;9.30;;
1308;SDS011;647;48.840;9.314;2022-11-02T00:42:34;65.47;;;9.73;;
1308;SDS011;647;48.840;9.314;2022-11-02T00:45:01;69.23;;;9.17;;
1308;SDS011;647;48.840;9.314;2022-11-02T00:47:29;66.30;;;9.87;;
1308;SDS011;647;48.840;9.314;2022-11-02T00:49:55;66.80;;;9.90;;
1308;SDS011;647;48.840;9.314;2022-11-02T00:52:23;67.60;;;10.17;;
1308;SDS011;647;48.840;9.314;2022-11-02T00:54:50;65.57;;;9.67;;
1308;SDS011;647;48.840;9.314;2022-11-02T00:57:17;67.60;;;8.80;;
1308;SDS011;647;48.840;9.314;2022-11-02T00:59:44;65.43;;;10.10;;
1308;SDS011;647;48.840;9.314;2022-11-02T01:02:11;65.77;;;9.60;;
1308;SDS011;647;48.840;9.314;2022-11-02T01:04:37;66.00;;;9.53;;
1308;SDS011;647;48.840;9.314;2022-11-02T01:07:04;69.00;;;8.70;;
1308;SDS011;647;48.840;9.314;2022-11-02T01:09:32;66.47;;;10.20;;
1308;SDS011;647;48.840;9.314;2022-11-02T01:11:59;65.40;;;8.83;;
1308;SDS011;647;48.840;9.314;2022-11-02T01:14:26;67.10;;;9.00;;
1308;SDS011;647;48.840;9.314;2022-11-02T01:16:53;65.90;;;9.50;;
1308;SDS011;647;48.840;9.314;2022-11-02T01:19:21;66.90;;;8.73;;
1308;SDS011;647;48.840;9.314;2022-11-02T01:21:48;65.30;;;9.53;;
1308;SDS011;647;48.840;9.314;2022-11-02T01:24:15;65.67;;;10.03;;
1308;SDS011;647;48.840;9.314;2022-11-02T01:26:43;64.40;;;9.13;;
1308;SDS011;647;48.840;9.314;2022-11-02T01:29:10;67.60;;;9.30;;
1308;SDS011;647;48.840;9.314;2022-11-02T01:31:37;65.82;;;9.55;;
1308;SDS011;647;48.840;9.314;2022-11-02T01:34:04;65.83;;;10.47;;
1308;SDS011;647;48.840;9.314;2022-11-02T01:36:31;65.17;;;8.50;;
1308;SDS011;647;48.840;9.314;2022-11-02T01:38:58;65.43;;;9.97;;
1308;SDS011;647;48.840;9.314;2022-11-02T01:41:25;65.53;;;10.40;;
1308;SDS011;647;48.840;9.314;2022-11-02T01:43:54;69.70;;;9.90;;
1308;SDS011;647;48.840;9.314;2022-11-02T01:46:23;65.30;;;9.10;;
1308;SDS011;647;48.840;9.314;2022-11-02T01:48:57;64.47;;;9.17;;
1308;SDS011;647;48.840;9.314;2022-11-02T01:51:28;65.50;;;8.53;;
1308;SDS011;647;48.840;9.314;2022-11-02T01:53:59;66.47;;;9.03;;
1308;SDS011;647;48.840;9.314;2022-11-02T01:56:32;66.20;;;9.33;;
1308;SDS011;647;48.840;9.314;2022-11-02T01:59:03;64.57;;;9.93;;
1308;SDS011;647;48.840;9.314;2022-11-02T02:01:34;67.50;;;8.67;;
1308;SDS011;647;48.840;9.314;2022-11-02T02:04:01;64.63;;;8.60;;
1308;SDS011;647;48.840;9.314;2022-11-02T02:06:28;66.27;;;9.60;;
1308;SDS011;647;48.840;9.314;2022-11-02T02:08:55;66.30;;;9.07;;
1308;SDS011;647;48.840;9.314;2022-11-02T02:11:26;66.33;;;8.77;;
1308;SDS011;647;48.840;9.314;2022-11-02T02:13:55;64.57;;;8.90;;
1308;SDS011;647;48.840;9.314;2022-11-02T02:16:31;64.37;;;8.60;;
1308;SDS011;647;48.840;9.314;2022-11-02T02:19:21;65.60;;;8.47;;
1308;SDS011;647;48.840;9.314;2022-11-02T02:22:07;67.80;;;9.13;;
1308;SDS011;647;48.840;9.314;2022-11-02T02:25:05;62.87;;;8.50;;
1308;SDS011;647;48.840;9.314;2022-11-02T02:27:51;65.73;;;8.30;;
1308;SDS011;647;48.840;9.314;2022-11-02T02:30:29;64.70;;;8.10;;
1308;SDS011;647;48.840;9.314;2022-11-02T02:33:03;63.20;;;8.00;;
1308;SDS011;647;48.840;9.314;2022-11-02T02:35:35;63.43;;;7.37;;
1308;SDS011;647;48.840;9.314;2022-11-02T02:38:07;63.07;;;7.70;;
1308;SDS011;647;48.840;9.314;2022-11-02T02:40:38;62.30;;;7.10;;
1308;SDS011;647;48.840;9.314;2022-11-02T02:43:11;63.50;;;8.10;;
1308;SDS011;647;48.840;9.314;2022-11-02T02:45:41;61.90;;;7.23;;
1308;SDS011;647;48.840;9.314;2022-11-02T02:48:11;61.90;;;6.90;;
1308;SDS011;647;48.840;9.314;2022-11-02T02:50:42;64.13;;;7.43;;
1308;SDS011;647;48.840;9.314;2022-11-02T02:53:13;62.83;;;7.03;;
1308;SDS011;647;48.840;9.314;2022-11-02T02:55:42;70.70;;;7.53;;
1308;SDS011;647;48.840;9.314;2022-11-02T02:58:12;62.77;;;7.43;;
1308;SDS011;647;48.840;9.314;2022-11-02T03:00:43;62.27;;;7.43;;
1308;SDS011;647;48.840;9.314;2022-11-02T03:03:13;65.00;;;8.20;;
1308;SDS011;647;48.840;9.314;2022-11-02T03:05:43;62.00;;;7.27;;
1308;SDS011;647;48.840;9.314;2022-11-02T03:08:24;63.77;;;8.10;;
1308;SDS011;647;48.840;9.314;2022-11-02T03:10:52;61.90;;;7.13;;
1308;SDS011;647;48.840;9.314;2022-11-02T03:13:31;62.00;;;7.60;;
1308;SDS011;647;48.840;9.314;2022-11-02T03:16:05;63.90;;;7.57;;
1308;SDS011;647;48.840;9.314;2022-11-02T03:18:44;62.47;;;7.23;;
1308;SDS011;647;48.840;9.314;2022-11-02T03:21:15;62.17;;;7.07;;
1308;SDS011;647;48.840;9.314;2022-11-02T03:23:50;63.13;;;8.10;;
1308;SDS011;647;48.840;9.314;2022-11-02T03:26:21;63.27;;;7.00;;
1308;SDS011;647;48.840;9.314;2022-11-02T03:28:56;63.47;;;6.83;;
1308;SDS011;647;48.840;9.314;2022-11-02T03:31:30;63.50;;;7.20;;
1308;SDS011;647;48.840;9.314;2022-11-02T03:34:05;63.57;;;7.50;;
1308;SDS011;647;48.840;9.314;2022-11-02T03:36:42;61.77;;;6.90;;
1308;SDS011;647;48.840;9.314;2022-11-02T03:39:12;62.37;;;7.37;;
1308;SDS011;647;48.840;9.314;2022-11-02T03:41:43;66.53;;;7.30;;
1308;SDS011;647;48.840;9.314;2022-11-02T03:44:13;63.17;;;6.90;;
1308;SDS011;647;48.840;9.314;2022-11-02T03:46:44;62.53;;;7.47;;
1308;SDS011;647;48.840;9.314;2022-11-02T03:49:13;64.80;;;6.73;;
1308;SDS011;647;48.840;9.314;2022-11-02T03:51:43;63.93;;;7.70;;
1308;SDS011;647;48.840;9.314;2022-11-02T03:54:13;63.60;;;7.50;;
1308;SDS011;647;48.840;9.314;2022-11-02T03:56:47;65.30;;;7.47;;
1308;SDS011;647;48.840;9.314;2022-11-02T03:59:17;63.67;;;7.83;;
1308;SDS011;647;48.840;9.314;2022-11-02T04:01:44;63.63;;;7.30;;
1308;SDS011;647;48.840;9.314;2022-11-02T04:04:14;62.90;;;6.63;;
1308;SDS011;647;48.840;9.314;2022-11-02T04:06:43;63.47;;;7.20;;
1308;SDS011;647;48.840;9.314;2022-11-02T04:09:12;66.80;;;7.30;;
1308;SDS011;647;48.840;9.314;2022-11-02T04:11:38;62.25;;;7.03;;
1308;SDS011;647;48.840;9.314;2022-11-02T04:14:30;63.10;;;6.67;;
1308;SDS011;647;48.840;9.314;2022-11-02T04:17:03;60.87;;;5.90;;
1308;SDS011;647;48.840;9.314;2022-11-02T04:19:47;62.10;;;6.50;;
1308;SDS011;647;48.840;9.314;2022-11-02T04:22:14;60.87;;;6.70;;
1308;SDS011;647;48.840;9.314;2022-11-02T04:24:58;61.50;;;6.60;;
1308;SDS011;647;48.840;9.314;2022-11-02T04:27:46;62.87;;;6.80;;
1308;SDS011;647;48.840;9.314;2022-11-02T04:30:16;61.33;;;6.50;;
1308;SDS011;647;48.840;9.314;2022-11-02T04:32:45;62.90;;;6.33;;
1308;SDS011;647;48.840;9.314;2022-11-02T04:35:30;62.40;;;6.20;;
1308;SDS011;647;48.840;9.314;2022-11-02T04:37:58;61.90;;;6.30;;
1308;SDS011;647;48.840;9.314;2022-11-02T04:40:43;62.50;;;6.30;;
1308;SDS011;647;48.840;9.314;2022-11-02T04:43:10;60.80;;;5.87;;
1308;SDS011;647;48.840;9.314;2022-11-02T04:45:38;62.90;;;6.50;;
1308;SDS011;647;48.840;9.314;2022-11-02T04:48:06;62.27;;;6.83;;
1308;SDS011;647;48.840;9.314;2022-11-02T04:50:34;63.90;;;6.47;;
1308;SDS011;647;48.840;9.314;2022-11-02T04:53:03;61.10;;;6.50;;
1308;SDS011;647;48.840;9.314;2022-11-02T04:55:31;61.47;;;6.90;;
1308;SDS011;647;48.840;9.314;2022-11-02T04:57:58;63.27;;;6.80;;
1308;SDS011;647;48.840;9.314;2022-11-02T05:00:25;62.17;;;6.95;;
1308;SDS011;647;48.840;9.314;2022-11-02T05:02:53;62.57;;;6.00;;
1308;SDS011;647;48.840;9.314;2022-11-02T05:05:20;62.45;;;6.65;;
1308;SDS011;647;48.840;9.314;2022-11-02T05:07:47;61.67;;;6.50;;
1308;SDS011;647;48.840;9.314;2022-11-02T05:10:14;61.55;;;6.10;;
1308;SDS011;647;48.840;9.314;2022-11-02T05:12:41;62.67;;;6.67;;
1308;SDS011;647;48.840;9.314;2022-11-02T05:15:08;65.05;;;6.75;;
1308;SDS011;647;48.840;9.314;2022-11-02T05:17:35;62.90;;;6.65;;
1308;SDS011;647;48.840;9.314;2022-11-02T05:20:03;61.93;;;7.07;;
1308;SDS011;647;48.840;9.314;2022-11-02T05:22:32;63.33;;;7.43;;
1308;SDS011;647;48.840;9.314;2022-11-02T05:24:59;62.95;;;7.20;;
1308;SDS011;647;48.840;9.314;2022-11-02T05:27:26;63.75;;;7.55;;
1308;SDS011;647;48.840;9.314;2022-11-02T05:29:52;61.97;;;7.20;;
1308;SDS011;647;48.840;9.314;2022-11-02T05:32:19;61.40;;;6.63;;
1308;SDS011;647;48.840;9.314;2022-11-02T05:34:46;62.70;;;7.27;;
1308;SDS011;647;48.840;9.314;2022-11-02T05:37:14;67.35;;;7.50;;
1308;SDS011;647;48.840;9.314;2022-11-02T05:39:41;62.08;;;6.53;;
1308;SDS011;647;48.840;9.314;2022-11-02T05:42:08;61.43;;;7.00;;
1308;SDS011;647;48.840;9.314;2022-11-02T05:44:34;63.27;;;6.43;;
1308;SDS011;647;48.840;9.314;2022-11-02T05:47:02;62.43;;;6.80;;
1308;SDS011;647;48.840;9.314;2022-11-02T05:49:29;63.15;;;7.35;;
1308;SDS011;647;48.840;9.314;2022-11-02T05:51:55;61.50;;;6.87;;
1308;SDS011;647;48.840;9.314;2022-11-02T05:54:24;62.90;;;6.60;;
1308;SDS011;647;48.840;9.314;2022-11-02T05:56:50;61.63;;;6.95;;
1308;SDS011;647;48.840;9.314;2022-11-02T05:59:17;64.10;;;7.37;;
1308;SDS011;647;48.840;9.314;2022-11-02T06:01:44;61.97;;;7.10;;
1308;SDS011;647;48.840;9.314;2022-11-02T06:04:11;64.50;;;7.20;;
1308;SDS011;647;48.840;9.314;2022-11-02T06:06:37;63.47;;;6.83;;
1308;SDS011;647;48.840;9.314;2022-11-02T06:09:04;62.97;;;7.40;;
1308;SDS011;647;48.840;9.314;2022-11-02T06:11:33;62.90;;;6.90;;
1308;SDS011;647;48.840;9.314;2022-11-02T06:14:00;62.27;;;7.57;;
1308;SDS011;647;48.840;9.314;2022-11-02T06:16:27;61.77;;;7.00;;
1308;SDS011;647;48.840;9.314;2022-11-02T06:18:55;63.30;;;5.97;;
1308;SDS011;647;48.840;9.314;2022-11-02T06:21:22;64.73;;;7.07;;
1308;SDS011;647;48.840;9.314;2022-11-02T06:23:48;61.43;;;6.77;;
1308;SDS011;647;48.840;9.314;2022-11-02T06:26:16;67.23;;;7.47;;
1308;SDS011;647;48.840;9.314;2022-11-02T06:28:44;64.87;;;7.57;;
1308;SDS011;647;48.840;9.314;2022-11-02T06:31:11;62.27;;;6.97;;
1308;SDS011;647;48.840;9.314;2022-11-02T06:33:37;66.23;;;8.57;;
1308;SDS011;647;48.840;9.314;2022-11-02T06:36:04;62.83;;;6.93;;
1308;SDS011;647;48.840;9.314;2022-11-02T06:38:32;65.50;;;7.60;;
1308;SDS011;647;48.840;9.314;2022-11-02T06:41:00;63.53;;;7.40;;
1308;SDS011;647;48.840;9.314;2022-11-02T06:43:30;62.67;;;7.30;;
1308;SDS011;647;48.840;9.314;2022-11-02T06:45:58;64.20;;;7.90;;
1308;SDS011;647;48.840;9.314;2022-11-02T06:48:25;63.23;;;7.10;;
1308;SDS011;647;48.840;9.314;2022-11-02T06:50:53;62.50;;;7.30;;
1308;SDS011;647;48.840;9.314;2022-11-02T06:53:20;63.67;;;7.40;;
1308;SDS011;647;48.840;9.314;2022-11-02T06:55:50;64.40;;;8.03;;
1308;SDS011;647;48.840;9.314;2022-11-02T06:58:17;63.60;;;7.60;;
1308;SDS011;647;48.840;9.314;2022-11-02T07:00:44;67.13;;;7.90;;
1308;SDS011;647;48.840;9.314;2022-11-02T07:03:12;63.20;;;7.60;;
1308;SDS011;647;48.840;9.314;2022-11-02T07:05:39;66.80;;;6.87;;
1308;SDS011;647;48.840;9.314;2022-11-02T07:08:06;62.30;;;6.83;;
1308;SDS011;647;48.840;9.314;2022-11-02T07:10:33;64.00;;;6.70;;
1308;SDS011;647;48.840;9.314;2022-11-02T07:13:00;62.33;;;6.90;;
1308;SDS011;647;48.840;9.314;2022-11-02T07:15:27;65.93;;;7.30;;
1308;SDS011;647;48.840;9.314;2022-11-02T07:17:54;65.73;;;7.37;;
1308;SDS011;647;48.840;9.314;2022-11-02T07:20:22;67.00;;;8.27;;
1308;SDS011;647;48.840;9.314;2022-11-02T07:22:52;63.57;;;6.23;;
1308;SDS011;647;48.840;9.314;2022-11-02T07:25:19;64.40;;;7.63;;
1308;SDS011;647;48.840;9.314;2022-11-02T07:27:46;68.60;;;7.30;;
1308;SDS011;647;48.840;9.314;2022-11-02T07:30:13;64.00;;;7.40;;
1308;SDS011;647;48.840;9.314;2022-11-02T07:32:40;63.30;;;7.20;;
1308;SDS011;647;48.840;9.314;2022-11-02T07:35:08;63.10;;;7.90;;
1308;SDS011;647;48.840;9.314;2022-11-02T07:37:37;63.50;;;7.40;;
1308;SDS011;647;48.840;9.314;2022-11-02T07:40:06;63.03;;;7.37;;
1308;SDS011;647;48.840;9.314;2022-11-02T07:42:34;63.50;;;7.70;;
1308;SDS011;647;48.840;9.314;2022-11-02T07:45:01;64.03;;;7.47;;
1308;SDS011;647;48.840;9.314;2022-11-02T07:47:28;63.80;;;7.70;;
1308;SDS011;647;48.840;9.314;2022-11-02T07:49:55;65.20;;;8.50;;
1308;SDS011;647;48.840;9.314;2022-11-02T07:52:23;64.00;;;8.20;;
1308;SDS011;647;48.840;9.314;2022-11-02T07:54:52;70.80;;;7.77;;
1308;SDS011;647;48.840;9.314;2022-11-02T07:57:18;63.70;;;6.87;;
1308;SDS011;647;48.840;9.314;2022-11-02T07:59:45;63.73;;;7.20;;
1308;SDS011;647;48.840;9.314;2022-11-02T08:02:12;63.33;;;7.43;;
1308;SDS011;647;48.840;9.314;2022-11-02T08:04:39;66.60;;;7.03;;
1308;SDS011;647;48.840;9.314;2022-11-02T08:07:05;65.67;;;7.80;;
1308;SDS011;647;48.840;9.314;2022-11-02T08:09:32;65.60;;;6.90;;
1308;SDS011;647;48.840;9.314;2022-11-02T08:12:00;67.23;;;7.23;;
1308;SDS011;647;48.840;9.314;2022-11-02T08:14:27;63.27;;;7.03;;
1308;SDS011;647;48.840;9.314;2022-11-02T08:16:54;63.37;;;7.07;;
1308;SDS011;647;48.840;9.314;2022-11-02T08:19:20;66.57;;;7.60;;
1308;SDS011;647;48.840;9.314;2022-11-02T08:21:47;63.20;;;7.37;;
1308;SDS011;647;48.840;9.314;2022-11-02T08:24:14;64.77;;;7.10;;
1308;SDS011;647;48.840;9.314;2022-11-02T08:26:41;65.40;;;7.10;;
1308;SDS011;647;48.840;9.314;2022-11-02T08:29:09;63.57;;;7.00;;
1308;SDS011;647;48.840;9.314;2022-11-02T08:31:35;66.43;;;7.20;;
1308;SDS011;647;48.840;9.314;2022-11-02T08:34:02;65.30;;;6.70;;
1308;SDS011;647;48.840;9.314;2022-11-02T08:36:29;64.57;;;6.80;;
1308;SDS011;647;48.840;9.314;2022-11-02T08:38:56;64.70;;;7.33;;
1308;SDS011;647;48.840;9.314;2022-11-02T08:41:23;63.37;;;6.80;;
1308;SDS011;647;48.840;9.314;2022-11-02T08:43:49;64.40;;;6.33;;
1308;SDS011;647;48.840;9.314;2022-11-02T08:46:18;62.90;;;5.70;;
1308;SDS011;647;48.840;9.314;2022-11-02T08:48:44;64.37;;;6.70;;
1308;SDS011;647;48.840;9.314;2022-11-02T08:51:11;66.50;;;5.80;;
1308;SDS011;647;48.840;9.314;2022-11-02T08:53:38;64.93;;;4.90;;
1308;SDS011;647;48.840;9.314;2022-11-02T08:56:05;68.20;;;6.07;;
1308;SDS011;647;48.840;9.314;2022-11-02T08:58:32;63.97;;;4.90;;
1308;SDS011;647;48.840;9.314;2022-11-02T09:00:59;80.10;;;6.60;;
1308;SDS011;647;48.840;9.314;2022-11-02T09:03:27;63.10;;;5.33;;
1308;SDS011;647;48.840;9.314;2022-11-02T09:05:58;65.57;;;5.20;;
1308;SDS011;647;48.840;9.314;2022-11-02T09:08:27;63.27;;;4.83;;
1308;SDS011;647;48.840;9.314;2022-11-02T09:10:56;65.57;;;5.53;;
1308;SDS011;647;48.840;9.314;2022-11-02T09:13:24;68.63;;;5.60;;
1308;SDS011;647;48.840;9.314;2022-11-02T09:15:52;64.10;;;5.60;;
1308;SDS011;647;48.840;9.314;2022-11-02T09:18:20;66.33;;;5.20;;
1308;SDS011;647;48.840;9.314;2022-11-02T09:20:49;62.90;;;5.80;;
1308;SDS011;647;48.840;9.314;2022-11-02T09:23:16;64.17;;;5.30;;
1308;SDS011;647;48.840;9.314;2022-11-02T09:25:43;61.80;;;4.57;;
1308;SDS011;647;48.840;9.314;2022-11-02T09:28:10;62.10;;;4.70;;
1308;SDS011;647;48.840;9.314;2022-11-02T09:30:39;67.53;;;5.43;;
1308;SDS011;647;48.840;9.314;2022-11-02T09:33:07;73.20;;;6.37;;
1308;SDS011;647;48.840;9.314;2022-11-02T09:35:35;63.13;;;4.80;;
1308;SDS011;647;48.840;9.314;2022-11-02T09:38:05;74.30;;;5.27;;
1308;SDS011;647;48.840;9.314;2022-11-02T09:40:34;63.77;;;5.50;;
1308;SDS011;647;48.840;9.314;2022-11-02T09:43:04;62.87;;;5.10;;
1308;SDS011;647;48.840;9.314;2022-11-02T09:45:38;65.70;;;4.47;;
1308;SDS011;647;48.840;9.314;2022-11-02T09:48:19;66.00;;;5.70;;
1308;SDS011;647;48.840;9.314;2022-11-02T09:50:52;65.50;;;5.30;;
1308;SDS011;647;48.840;9.314;2022-11-02T09:53:26;64.80;;;4.40;;
1308;SDS011;647;48.840;9.314;2022-11-02T09:55:56;62.70;;;4.70;;
1308;SDS011;647;48.840;9.314;2022-11-02T09:58:27;67.07;;;5.00;;
1308;SDS011;647;48.840;9.314;2022-11-02T10:01:07;65.77;;;4.70;;
1308;SDS011;647;48.840;9.314;2022-11-02T10:03:49;67.70;;;5.43;;
1308;SDS011;647;48.840;9.314;2022-11-02T10:06:31;59.87;;;4.20;;
1308;SDS011;647;48.840;9.314;2022-11-02T10:09:05;66.93;;;5.33;;
1308;SDS011;647;48.840;9.314;2022-11-02T10:11:41;63.97;;;5.13;;
1308;SDS011;647;48.840;9.314;2022-11-02T10:14:17;64.60;;;4.60;;
1308;SDS011;647;48.840;9.314;2022-11-02T10:16:49;62.80;;;4.87;;
1308;SDS011;647;48.840;9.314;2022-11-02T10:19:20;66.53;;;4.73;;
1308;SDS011;647;48.840;9.314;2022-11-02T10:21:47;68.67;;;4.43;;
1308;SDS011;647;48.840;9.314;2022-11-02T10:24:22;62.37;;;4.80;;
1308;SDS011;647;48.840;9.314;2022-11-02T10:26:51;60.87;;;4.30;;
1308;SDS011;647;48.840;9.314;2022-11-02T10:29:25;65.47;;;4.40;;
1308;SDS011;647;48.840;9.314;2022-11-02T10:32:03;61.80;;;3.87;;
1308;SDS011;647;48.840;9.314;2022-11-02T10:34:31;69.50;;;5.17;;
1308;SDS011;647;48.840;9.314;2022-11-02T10:37:03;66.70;;;4.47;;
1308;SDS011;647;48.840;9.314;2022-11-02T10:39:44;60.50;;;3.80;;
1308;SDS011;647;48.840;9.314;2022-11-02T10:42:32;61.23;;;3.93;;
1308;SDS011;647;48.840;9.314;2022-11-02T10:48:22;66.10;;;4.33;;
1308;SDS011;647;48.840;9.314;2022-11-02T10:50:59;61.60;;;3.73;;
1308;SDS011;647;48.840;9.314;2022-11-02T10:53:33;61.40;;;4.10;;
1308;SDS011;647;48.840;9.314;2022-11-02T10:56:03;60.20;;;3.80;;
1308;SDS011;647;48.840;9.314;2022-11-02T10:58:39;62.20;;;4.30;;
1308;SDS011;647;48.840;9.314;2022-11-02T11:01:10;65.10;;;4.30;;
1308;SDS011;647;48.840;9.314;2022-11-02T11:03:51;63.60;;;4.10;;
1308;SDS011;647;48.840;9.314;2022-11-02T11:06:20;66.87;;;3.70;;
1308;SDS011;647;48.840;9.314;2022-11-02T11:08:48;64.70;;;3.93;;
1308;SDS011;647;48.840;9.314;2022-11-02T11:11:19;60.73;;;3.87;;
1308;SDS011;647;48.840;9.314;2022-11-02T11:13:57;62.60;;;4.00;;
1308;SDS011;647;48.840;9.314;2022-11-02T11:16:33;61.27;;;3.57;;
1308;SDS011;647;48.840;9.314;2022-11-02T11:19:06;62.47;;;3.87;;
1308;SDS011;647;48.840;9.314;2022-11-02T11:21:46;61.80;;;4.30;;
1308;SDS011;647;48.840;9.314;2022-11-02T11:24:18;63.20;;;4.40;;
1308;SDS011;647;48.840;9.314;2022-11-02T11:26:59;62.47;;;3.60;;
1308;SDS011;647;48.840;9.314;2022-11-02T11:29:32;61.70;;;3.77;;
1308;SDS011;647;48.840;9.314;2022-11-02T11:32:00;64.37;;;4.10;;
1308;SDS011;647;48.840;9.314;2022-11-02T11:34:29;61.80;;;3.70;;
1308;SDS011;647;48.840;9.314;2022-11-02T11:37:05;63.10;;;3.90;;
1308;SDS011;647;48.840;9.314;2022-11-02T11:39:34;61.27;;;3.87;;
1308;SDS011;647;48.840;9.314;2022-11-02T11:42:04;62.90;;;3.80;;
1308;SDS011;647;48.840;9.314;2022-11-02T11:44:42;66.30;;;4.30;;
1308;SDS011;647;48.840;9.314;2022-11-02T11:47:10;62.73;;;3.80;;
1308;SDS011;647;48.840;9.314;2022-11-02T11:49:40;62.67;;;4.30;;
1308;SDS011;647;48.840;9.314;2022-11-02T11:52:14;60.70;;;3.70;;
1308;SDS011;647;48.840;9.314;2022-11-02T11:54:51;60.77;;;3.53;;
1308;SDS011;647;48.840;9.314;2022-11-02T11:57:22;60.60;;;3.50;;
1308;SDS011;647;48.840;9.314;2022-11-02T11:59:52;63.57;;;4.10;;
1308;SDS011;647;48.840;9.314;2022-11-02T12:02:23;60.20;;;3.20;;
1308;SDS011;647;48.840;9.314;2022-11-02T12:04:51;60.40;;;3.63;;
1308;SDS011;647;48.840;9.314;2022-11-02T12:07:28;63.47;;;3.57;;
1308;SDS011;647;48.840;9.314;2022-11-02T12:10:13;63.43;;;3.40;;
1308;SDS011;647;48.840;9.314;2022-11-02T12:12:53;64.70;;;3.87;;
1308;SDS011;647;48.840;9.314;2022-11-02T12:15:37;60.80;;;3.60;;
1308;SDS011;647;48.840;9.314;2022-11-02T12:18:25;62.97;;;3.33;;
1308;SDS011;647;48.840;9.314;2022-11-02T12:21:03;61.70;;;3.67;;
1308;SDS011;647;48.840;9.314;2022-11-02T12:23:46;60.57;;;3.83;;
1308;SDS011;647;48.840;9.314;2022-11-02T12:26:30;62.17;;;4.27;;
1308;SDS011;647;48.840;9.314;2022-11-02T12:29:10;60.77;;;4.03;;
1308;SDS011;647;48.840;9.314;2022-11-02T12:31:49;60.40;;;3.60;;
1308;SDS011;647;48.840;9.314;2022-11-02T12:34:30;60.70;;;3.87;;
1308;SDS011;647;48.840;9.314;2022-11-02T12:37:14;63.40;;;3.73;;
1308;SDS011;647;48.840;9.314;2022-11-02T12:39:52;61.07;;;3.80;;
1308;SDS011;647;48.840;9.314;2022-11-02T12:42:29;64.50;;;4.13;;
1308;SDS011;647;48.840;9.314;2022-11-02T12:45:15;62.30;;;3.80;;
1308;SDS011;647;48.840;9.314;2022-11-02T12:47:50;60.40;;;3.80;;
1308;SDS011;647;48.840;9.314;2022-11-02T12:50:23;61.87;;;4.07;;
1308;SDS011;647;48.840;9.314;2022-11-02T12:53:03;62.73;;;3.50;;
1308;SDS011;647;48.840;9.314;2022-11-02T12:55:46;63.97;;;4.40;;
1308;SDS011;647;48.840;9.314;2022-11-02T12:58:16;62.90;;;3.87;;
1308;SDS011;647;48.840;9.314;2022-11-02T13:00:48;62.30;;;3.87;;
1308;SDS011;647;48.840;9.314;2022-11-02T13:03:22;67.13;;;4.13;;
1308;SDS011;647;48.840;9.314;2022-11-02T13:06:01;63.27;;;3.60;;
1308;SDS011;647;48.840;9.314;2022-11-02T13:08:33;59.07;;;2.87;;
1308;SDS011;647;48.840;9.314;2022-11-02T13:11:05;62.53;;;3.40;;
1308;SDS011;647;48.840;9.314;2022-11-02T13:13:36;60.50;;;3.73;;
1308;SDS011;647;48.840;9.314;2022-11-02T13:16:08;60.57;;;3.53;;
1308;SDS011;647;48.840;9.314;2022-11-02T13:18:40;59.00;;;3.00;;
1308;SDS011;647;48.840;9.314;2022-11-02T13:21:10;60.47;;;3.60;;
1308;SDS011;647;48.840;9.314;2022-11-02T13:23:42;61.47;;;3.73;;
1308;SDS011;647;48.840;9.314;2022-11-02T13:26:13;60.23;;;3.33;;
1308;SDS011;647;48.840;9.314;2022-11-02T13:28:50;59.57;;;3.73;;
1308;SDS011;647;48.840;9.314;2022-11-02T13:31:22;63.40;;;3.37;;
1308;SDS011;647;48.840;9.314;2022-11-02T13:33:53;63.47;;;3.90;;
1308;SDS011;647;48.840;9.314;2022-11-02T13:36:24;62.20;;;3.20;;
1308;SDS011;647;48.840;9.314;2022-11-02T13:38:52;60.20;;;3.43;;
1308;SDS011;647;48.840;9.314;2022-11-02T13:41:29;60.17;;;2.93;;
1308;SDS011;647;48.840;9.314;2022-11-02T13:47:19;60.60;;;3.53;;
1308;SDS011;647;48.840;9.314;2022-11-02T13:50:02;59.50;;;3.53;;
1308;SDS011;647;48.840;9.314;2022-11-02T13:52:34;64.33;;;4.03;;
1308;SDS011;647;48.840;9.314;2022-11-02T13:55:04;61.40;;;4.30;;
1308;SDS011;647;48.840;9.314;2022-11-02T13:57:33;64.00;;;3.90;;
1308;SDS011;647;48.840;9.314;2022-11-02T14:00:03;60.40;;;4.00;;
1308;SDS011;647;48.840;9.314;2022-11-02T14:02:34;64.50;;;4.50;;
1308;SDS011;647;48.840;9.314;2022-11-02T14:05:06;60.90;;;3.90;;
1308;SDS011;647;48.840;9.314;2022-11-02T14:07:34;61.70;;;3.53;;
1308;SDS011;647;48.840;9.314;2022-11-02T14:10:06;59.47;;;3.47;;
1308;SDS011;647;48.840;9.314;2022-11-02T14:12:41;62.87;;;4.20;;
1308;SDS011;647;48.840;9.314;2022-11-02T14:18:26;61.60;;;3.37;;
1308;SDS011;647;48.840;9.314;2022-11-02T14:20:55;63.23;;;3.33;;
1308;SDS011;647;48.840;9.314;2022-11-02T14:23:35;61.27;;;3.80;;
1308;SDS011;647;48.840;9.314;2022-11-02T14:26:03;60.53;;;3.60;;
1308;SDS011;647;48.840;9.314;2022-11-02T14:28:50;63.90;;;4.50;;
1308;SDS011;647;48.840;9.314;2022-11-02T14:31:26;62.77;;;4.13;;
1308;SDS011;647;48.840;9.314;2022-11-02T14:37:03;62.87;;;3.77;;
1308;SDS011;647;48.840;9.314;2022-11-02T14:39:55;63.40;;;4.13;;
1308;SDS011;647;48.840;9.314;2022-11-02T14:42:39;61.20;;;3.83;;
1308;SDS011;647;48.840;9.314;2022-11-02T14:48:15;63.33;;;3.77;;
1308;SDS011;647;48.840;9.314;2022-11-02T14:50:43;61.80;;;4.00;;
1308;SDS011;647;48.840;9.314;2022-11-02T14:53:23;62.70;;;3.80;;
1308;SDS011;647;48.840;9.314;2022-11-02T14:55:52;62.27;;;4.40;;
1308;SDS011;647;48.840;9.314;2022-11-02T14:58:21;61.90;;;4.30;;
1308;SDS011;647;48.840;9.314;2022-11-02T15:00:53;62.97;;;4.10;;
1308;SDS011;647;48.840;9.314;2022-11-02T15:03:27;62.10;;;3.57;;
1308;SDS011;647;48.840;9.314;2022-11-02T15:06:00;69.90;;;4.83;;
1308;SDS011;647;48.840;9.314;2022-11-02T15:08:30;61.07;;;3.50;;
1308;SDS011;647;48.840;9.314;2022-11-02T15:10:59;65.07;;;4.90;;
1308;SDS011;647;48.840;9.314;2022-11-02T15:20:25;62.10;;;5.23;;
1308;SDS011;647;48.840;9.314;2022-11-02T15:22:57;65.43;;;5.63;;
1308;SDS011;647;48.840;9.314;2022-11-02T15:25:31;61.97;;;4.63;;
1308;SDS011;647;48.840;9.314;2022-11-02T15:28:05;64.93;;;5.03;;
1308;SDS011;647;48.840;9.314;2022-11-02T15:30:37;64.80;;;4.97;;
1308;SDS011;647;48.840;9.314;2022-11-02T15:33:10;64.27;;;5.60;;
1308;SDS011;647;48.840;9.314;2022-11-02T15:35:44;61.97;;;5.17;;
1308;SDS011;647;48.840;9.314;2022-11-02T15:38:13;63.80;;;6.17;;
1308;SDS011;647;48.840;9.314;2022-11-02T15:40:44;65.20;;;6.90;;
1308;SDS011;647;48.840;9.314;2022-11-02T15:43:22;64.03;;;4.50;;
1308;SDS011;647;48.840;9.314;2022-11-02T15:46:04;68.00;;;4.73;;
1308;SDS011;647;48.840;9.314;2022-11-02T15:48:40;61.47;;;4.20;;
1308;SDS011;647;48.840;9.314;2022-11-02T15:51:14;67.97;;;5.00;;
1308;SDS011;647;48.840;9.314;2022-11-02T15:56:48;62.30;;;4.13;;
1308;SDS011;647;48.840;9.314;2022-11-02T15:59:39;62.00;;;4.80;;
1308;SDS011;647;48.840;9.314;2022-11-02T16:02:22;64.37;;;4.97;;
1308;SDS011;647;48.840;9.314;2022-11-02T16:04:51;66.70;;;4.23;;